Time;durP1;ratioP1;P1;durP2;ratioP2;P2;SDS_P1;SDS_P2;PMS_P1;PMS_P2;Temp;Humidity;BMP_temperature;BMP_pressure;BME280_temperature;BME280_humidity;BME280_pressure;Samples;Min_cycle;Max_cycle;Signal;HPM_P1;HPM_P2
2023/09/10 00:02:20;;;;;;;12.98;10.48;;;21.00;99.90;;;;;;5044955;28;20028;-32
2023/09/10 00:04:46;;;;;;;13.82;12.13;;;21.00;99.90;;;;;;5048420;28;20112;-32
2023/09/10 00:07:11;;;;;;;13.60;12.27;;;21.00;99.90;;;;;;5046209;28;20241;-32
2023/09/10 00:09:38;;;;;;;12.77;11.48;;;21.00;99.90;;;;;;5047101;28;20029;-33
2023/09/10 00:12:04;;;;;;;12.75;11.45;;;21.00;99.90;;;;;;5047625;28;20204;-32
2023/09/10 00:14:30;;;;;;;14.05;11.90;;;20.90;99.90;;;;;;5041723;28;20065;-32
2023/09/10 00:16:55;;;;;;;12.73;11.43;;;20.90;99.90;;;;;;5042731;28;20041;-32
2023/09/10 00:19:21;;;;;;;13.77;12.30;;;20.90;99.90;;;;;;5042057;28;20558;-33
2023/09/10 00:21:47;;;;;;;13.18;11.88;;;20.90;99.90;;;;;;5044719;28;20033;-32
2023/09/10 00:24:13;;;;;;;14.63;12.43;;;20.90;99.90;;;;;;5046576;28;21745;-32
2023/09/10 00:26:38;;;;;;;13.52;12.23;;;20.90;99.90;;;;;;5043314;28;20398;-39
2023/09/10 00:29:04;;;;;;;13.98;12.57;;;20.90;99.90;;;;;;5049919;28;20041;-32
2023/09/10 00:31:31;;;;;;;14.52;12.63;;;20.90;99.90;;;;;;5044395;28;20030;-33
2023/09/10 00:33:57;;;;;;;13.88;12.48;;;20.90;99.90;;;;;;5044950;28;20056;-33
2023/09/10 00:36:23;;;;;;;14.27;12.88;;;20.90;99.90;;;;;;5047957;28;20037;-33
2023/09/10 00:38:48;;;;;;;15.80;14.10;;;20.90;99.90;;;;;;5046606;28;20033;-33
2023/09/10 00:41:14;;;;;;;16.45;14.85;;;20.90;99.90;;;;;;5045435;28;20053;-33
2023/09/10 00:43:39;;;;;;;15.95;14.10;;;20.90;99.90;;;;;;5030620;28;20441;-33
2023/09/10 00:46:06;;;;;;;16.55;13.30;;;20.80;99.90;;;;;;5045570;28;20075;-33
2023/09/10 00:48:32;;;;;;;17.60;14.85;;;20.70;99.90;;;;;;5049093;28;20091;-33
2023/09/10 00:50:58;;;;;;;16.42;14.65;;;20.70;99.90;;;;;;5040450;28;20041;-33
2023/09/10 00:53:24;;;;;;;16.92;15.13;;;20.70;99.90;;;;;;5043038;28;20041;-33
2023/09/10 00:55:50;;;;;;;16.30;14.55;;;20.60;99.90;;;;;;5028547;28;20138;-34
2023/09/10 00:58:17;;;;;;;14.90;13.15;;;20.60;99.90;;;;;;5041748;28;20055;-33
2023/09/10 01:00:44;;;;;;;15.48;13.82;;;20.60;99.90;;;;;;5046978;28;20103;-32
2023/09/10 01:03:10;;;;;;;16.40;14.55;;;20.60;99.90;;;;;;5048047;28;20041;-33
2023/09/10 01:05:36;;;;;;;19.52;15.82;;;20.60;99.90;;;;;;5050311;28;20041;-33
2023/09/10 01:08:05;;;;;;;17.20;15.40;;;20.60;99.90;;;;;;5029224;28;20044;-33
2023/09/10 01:10:48;;;;;;;17.58;15.68;;;20.50;99.90;;;;;;5050347;28;20041;-33
2023/09/10 01:13:22;;;;;;;14.90;13.30;;;20.50;99.90;;;;;;5047129;28;20048;-33
2023/09/10 01:15:54;;;;;;;17.27;15.48;;;20.50;99.90;;;;;;5048497;28;20391;-33
2023/09/10 01:18:28;;;;;;;17.88;15.98;;;20.40;99.90;;;;;;5031031;28;20169;-33
2023/09/10 01:21:13;;;;;;;16.33;14.63;;;20.40;99.90;;;;;;5051949;28;20056;-33
2023/09/10 01:23:50;;;;;;;18.80;16.17;;;20.40;99.90;;;;;;5049976;28;20036;-33
2023/09/10 01:26:16;;;;;;;16.13;14.40;;;20.30;99.90;;;;;;5045626;28;20072;-33
2023/09/10 01:28:42;;;;;;;18.42;16.15;;;20.30;99.90;;;;;;5050974;28;20442;-33
2023/09/10 01:31:07;;;;;;;18.98;16.67;;;20.30;99.90;;;;;;5046094;28;20424;-33
2023/09/10 01:33:36;;;;;;;18.27;14.43;;;20.20;99.90;;;;;;5050918;28;20118;-33
2023/09/10 01:36:23;;;;;;;17.80;15.90;;;20.20;99.90;;;;;;5043528;28;20057;-33
2023/09/10 01:39:18;;;;;;;18.58;15.98;;;20.20;99.90;;;;;;5047528;28;20052;-33
2023/09/10 01:41:47;;;;;;;17.90;16.10;;;20.20;99.90;;;;;;5050600;28;20075;-33
2023/09/10 01:44:14;;;;;;;18.27;16.38;;;20.20;99.90;;;;;;5051034;28;20494;-33
2023/09/10 01:46:41;;;;;;;18.60;16.70;;;20.10;99.90;;;;;;5048513;28;20041;-33
2023/09/10 01:49:08;;;;;;;19.67;17.60;;;20.10;99.90;;;;;;5051819;28;20029;-33
2023/09/10 01:51:34;;;;;;;18.20;15.82;;;20.20;99.90;;;;;;5050104;28;20037;-33
2023/09/10 01:53:59;;;;;;;21.58;16.65;;;20.20;99.90;;;;;;5034508;28;20087;-33
2023/09/10 01:56:25;;;;;;;18.98;16.45;;;20.10;99.90;;;;;;5049404;28;20106;-33
2023/09/10 01:58:51;;;;;;;19.40;17.08;;;20.10;99.90;;;;;;5047348;28;20132;-33
2023/09/10 02:01:16;;;;;;;20.20;18.00;;;20.10;99.90;;;;;;5048726;28;20050;-33
2023/09/10 02:03:42;;;;;;;21.95;19.10;;;20.10;99.90;;;;;;5051316;28;20064;-42
2023/09/10 02:06:08;;;;;;;19.35;17.33;;;20.00;99.90;;;;;;5047639;28;20397;-32
2023/09/10 02:08:33;;;;;;;19.73;17.63;;;20.00;99.90;;;;;;5042541;28;20028;-33
2023/09/10 02:11:04;;;;;;;21.58;19.25;;;19.90;99.90;;;;;;5044351;28;20079;-33
2023/09/10 02:13:30;;;;;;;19.75;17.77;;;19.90;99.90;;;;;;5050809;28;20044;-33
2023/09/10 02:15:55;;;;;;;21.05;17.85;;;19.90;99.90;;;;;;5046263;28;20394;-33
2023/09/10 02:18:22;;;;;;;20.67;18.50;;;19.90;99.90;;;;;;5046393;28;20533;-33
2023/09/10 02:20:48;;;;;;;21.40;17.75;;;19.90;99.90;;;;;;5048697;28;20033;-33
2023/09/10 02:23:14;;;;;;;20.95;18.23;;;19.80;99.90;;;;;;5050418;28;20033;-33
2023/09/10 02:25:40;;;;;;;21.30;19.08;;;19.80;99.90;;;;;;5044858;28;20398;-33
2023/09/10 02:28:06;;;;;;;21.20;19.00;;;19.80;99.90;;;;;;5050332;28;20044;-33
2023/09/10 02:30:31;;;;;;;21.67;19.40;;;19.80;99.90;;;;;;5049519;28;20067;-33
2023/09/10 02:32:57;;;;;;;21.10;18.52;;;19.80;99.90;;;;;;5046304;28;20037;-33
2023/09/10 02:35:24;;;;;;;20.58;18.38;;;19.80;99.90;;;;;;5048646;28;20087;-33
2023/09/10 02:37:49;;;;;;;21.20;18.90;;;19.70;99.90;;;;;;5050686;28;20438;-33
2023/09/10 02:40:15;;;;;;;20.60;18.15;;;19.70;99.90;;;;;;5047712;28;20091;-33
2023/09/10 02:42:41;;;;;;;23.73;20.05;;;19.70;99.90;;;;;;5049137;28;20033;-33
2023/09/10 02:45:07;;;;;;;25.08;20.95;;;19.60;99.90;;;;;;5048896;28;20395;-33
2023/09/10 02:47:33;;;;;;;23.58;20.15;;;19.60;99.90;;;;;;5049974;28;20039;-33
2023/09/10 02:49:58;;;;;;;24.02;20.10;;;19.60;99.90;;;;;;5047666;28;20414;-33
2023/09/10 02:52:30;;;;;;;25.98;20.85;;;19.60;99.90;;;;;;5042279;28;20033;-33
2023/09/10 02:54:56;;;;;;;22.33;19.90;;;19.50;99.90;;;;;;5045195;28;20080;-33
2023/09/10 02:57:22;;;;;;;23.08;18.67;;;19.50;99.90;;;;;;5047851;28;20502;-33
2023/09/10 02:59:48;;;;;;;23.75;20.27;;;19.50;99.90;;;;;;5047981;28;20044;-33
2023/09/10 03:02:13;;;;;;;25.85;20.40;;;19.50;99.90;;;;;;5046913;28;20048;-33
2023/09/10 03:04:39;;;;;;;24.00;21.30;;;19.50;99.90;;;;;;5046028;28;20029;-33
2023/09/10 03:07:05;;;;;;;25.10;19.10;;;19.50;99.90;;;;;;5043159;28;20037;-33
2023/09/10 03:09:31;;;;;;;21.23;18.58;;;19.50;99.90;;;;;;5047998;28;20043;-33
2023/09/10 03:12:23;;;;;;;26.05;20.50;;;19.50;99.90;;;;;;5042329;28;20044;-33
2023/09/10 03:14:49;;;;;;;;;;;19.50;99.90;;;;;;5048136;28;20037;-33
2023/09/10 03:17:15;;;;;;;24.05;20.55;;;19.50;99.90;;;;;;5027560;28;19923;-33
2023/09/10 03:19:41;;;;;;;24.48;21.25;;;19.40;99.90;;;;;;5045873;28;20087;-33
2023/09/10 03:22:06;;;;;;;22.75;19.35;;;19.40;99.90;;;;;;5043600;28;20073;-33
2023/09/10 03:24:35;;;;;;;22.13;19.75;;;19.40;99.90;;;;;;5045839;28;20044;-33
2023/09/10 03:27:02;;;;;;;24.65;20.83;;;19.40;99.90;;;;;;5045316;28;20135;-33
2023/09/10 03:29:28;;;;;;;24.00;20.75;;;19.40;99.90;;;;;;5046595;28;20051;-33
2023/09/10 03:31:53;;;;;;;22.75;20.02;;;19.40;99.90;;;;;;5043917;28;20036;-33
2023/09/10 03:34:19;;;;;;;26.40;21.98;;;19.40;99.90;;;;;;5045062;28;20039;-33
2023/09/10 03:36:45;;;;;;;24.63;21.80;;;19.40;99.90;;;;;;5044889;28;20044;-33
2023/09/10 03:39:11;;;;;;;24.50;20.38;;;19.30;99.90;;;;;;5042163;28;20041;-33
2023/09/10 03:41:36;;;;;;;22.30;19.60;;;19.20;99.90;;;;;;5044775;28;20044;-33
2023/09/10 03:44:02;;;;;;;26.25;20.33;;;19.30;99.90;;;;;;5044155;28;20034;-33
2023/09/10 03:46:28;;;;;;;24.60;20.58;;;19.20;99.90;;;;;;5045611;28;20032;-33
2023/09/10 03:48:53;;;;;;;26.77;20.98;;;19.20;99.90;;;;;;5047097;28;20055;-33
2023/09/10 03:51:19;;;;;;;19.95;17.52;;;19.20;99.90;;;;;;5046010;28;20036;-33
2023/09/10 03:53:45;;;;;;;23.55;20.15;;;19.20;99.90;;;;;;5045611;28;20045;-33
2023/09/10 03:56:10;;;;;;;24.00;20.27;;;19.20;99.90;;;;;;5046929;28;20052;-33
2023/09/10 03:58:36;;;;;;;24.65;20.35;;;19.20;99.90;;;;;;5046490;28;20164;-33
2023/09/10 04:01:02;;;;;;;23.67;20.17;;;19.20;99.90;;;;;;5045757;28;20044;-33
2023/09/10 04:03:27;;;;;;;23.20;20.55;;;19.30;99.90;;;;;;5047642;28;20033;-33
2023/09/10 04:05:53;;;;;;;22.17;19.00;;;19.20;99.90;;;;;;5043473;28;20045;-33
2023/09/10 04:08:19;;;;;;;25.25;20.23;;;19.20;99.90;;;;;;5045693;28;20036;-33
2023/09/10 04:10:44;;;;;;;25.20;22.13;;;19.30;99.90;;;;;;5043040;28;20029;-33
2023/09/10 04:13:10;;;;;;;23.60;20.83;;;19.20;99.90;;;;;;5042923;28;20463;-33
2023/09/10 04:15:36;;;;;;;23.75;20.63;;;19.20;99.90;;;;;;5041680;28;20048;-33
2023/09/10 04:18:05;;;;;;;22.80;19.77;;;19.20;99.90;;;;;;5044134;28;20053;-33
2023/09/10 04:20:31;;;;;;;23.17;20.60;;;19.20;99.90;;;;;;5046252;28;20041;-33
2023/09/10 04:22:57;;;;;;;22.23;18.25;;;19.20;99.90;;;;;;5044031;28;20045;-34
2023/09/10 04:25:23;;;;;;;23.67;20.27;;;19.20;99.90;;;;;;5045506;28;20025;-34
2023/09/10 04:27:49;;;;;;;24.35;20.15;;;19.20;99.90;;;;;;5044175;28;20029;-33
2023/09/10 04:30:15;;;;;;;23.65;19.45;;;19.20;99.90;;;;;;5047038;28;20069;-33
2023/09/10 04:32:41;;;;;;;25.08;20.50;;;19.20;99.90;;;;;;5044314;28;20115;-33
2023/09/10 04:35:07;;;;;;;25.20;20.88;;;19.10;99.90;;;;;;5044790;28;20417;-33
2023/09/10 04:37:34;;;;;;;24.95;20.92;;;19.10;99.90;;;;;;5044716;28;20033;-33
2023/09/10 04:40:05;;;;;;;21.90;19.10;;;19.10;99.90;;;;;;5045281;28;20043;-33
2023/09/10 04:42:31;;;;;;;20.00;17.88;;;19.10;99.90;;;;;;5044114;28;20040;-33
2023/09/10 04:44:57;;;;;;;23.35;19.33;;;19.10;99.90;;;;;;5048624;28;20037;-33
2023/09/10 04:47:22;;;;;;;22.40;19.90;;;19.00;99.90;;;;;;5051093;28;20033;-33
2023/09/10 04:49:48;;;;;;;22.58;19.95;;;19.00;99.90;;;;;;5050397;28;20029;-33
2023/09/10 04:52:15;;;;;;;23.13;20.02;;;19.00;99.90;;;;;;5049429;28;20036;-33
2023/09/10 04:54:41;;;;;;;25.25;22.05;;;19.00;99.90;;;;;;5044312;28;20152;-33
2023/09/10 04:57:08;;;;;;;24.60;20.45;;;18.90;99.90;;;;;;5049371;28;20542;-33
2023/09/10 04:59:33;;;;;;;29.35;23.23;;;18.90;99.90;;;;;;5046159;28;20041;-32
2023/09/10 05:02:00;;;;;;;23.60;21.00;;;18.90;99.90;;;;;;5032258;28;20456;-32
2023/09/10 05:04:26;;;;;;;24.13;21.23;;;18.90;99.90;;;;;;5049887;28;20041;-33
2023/09/10 05:06:51;;;;;;;23.52;20.25;;;18.90;99.90;;;;;;5044374;28;20044;-33
2023/09/10 05:09:17;;;;;;;23.45;19.58;;;18.90;99.90;;;;;;5051066;28;20033;-33
2023/09/10 05:11:43;;;;;;;22.08;19.40;;;18.90;99.90;;;;;;5048374;28;20113;-33
2023/09/10 05:14:08;;;;;;;22.05;19.25;;;18.90;99.90;;;;;;5050378;28;20120;-33
2023/09/10 05:16:34;;;;;;;22.27;19.73;;;18.90;99.90;;;;;;5047779;28;20052;-33
2023/09/10 05:19:00;;;;;;;22.90;19.67;;;18.90;99.90;;;;;;5048978;28;20091;-33
2023/09/10 05:21:26;;;;;;;22.27;19.77;;;18.90;99.90;;;;;;5049245;28;20546;-33
2023/09/10 05:23:51;;;;;;;24.13;19.70;;;18.90;99.90;;;;;;5044905;28;20160;-33
2023/09/10 05:26:17;;;;;;;25.08;20.88;;;18.90;99.90;;;;;;5046205;28;20418;-33
2023/09/10 05:28:42;;;;;;;23.25;19.55;;;18.90;99.90;;;;;;5046015;28;20033;-33
2023/09/10 05:31:09;;;;;;;26.50;20.02;;;18.90;99.90;;;;;;5046655;28;20044;-33
2023/09/10 05:33:34;;;;;;;23.70;20.60;;;18.90;99.90;;;;;;5048953;28;20481;-33
2023/09/10 05:36:00;;;;;;;21.02;18.83;;;18.90;99.90;;;;;;5049390;28;20131;-33
2023/09/10 05:38:26;;;;;;;21.65;18.73;;;18.90;99.90;;;;;;5050909;28;20123;-33
2023/09/10 05:40:53;;;;;;;22.85;20.08;;;19.00;99.90;;;;;;5049638;28;20119;-33
2023/09/10 05:43:19;;;;;;;24.85;20.80;;;19.00;99.90;;;;;;5045306;28;20036;-33
2023/09/10 05:45:45;;;;;;;22.60;19.80;;;19.00;99.90;;;;;;5049317;28;20032;-33
2023/09/10 05:48:11;;;;;;;22.92;19.95;;;19.10;99.90;;;;;;5046229;28;20037;-33
2023/09/10 05:50:39;;;;;;;21.90;19.52;;;19.10;99.90;;;;;;5046285;28;20450;-33
2023/09/10 05:53:05;;;;;;;21.95;19.55;;;19.10;99.90;;;;;;5045460;28;20478;-33
2023/09/10 05:55:31;;;;;;;25.40;22.13;;;19.10;99.90;;;;;;5047924;28;20033;-33
2023/09/10 05:57:56;;;;;;;24.52;20.45;;;19.10;99.90;;;;;;5045682;28;20029;-33
2023/09/10 06:00:22;;;;;;;21.88;18.95;;;19.10;99.90;;;;;;5043951;28;20041;-33
2023/09/10 06:02:49;;;;;;;22.33;19.75;;;19.10;99.90;;;;;;5047197;28;20055;-33
2023/09/10 06:05:15;;;;;;;24.55;20.75;;;19.10;99.90;;;;;;5049089;28;20517;-33
2023/09/10 06:07:41;;;;;;;23.58;20.27;;;19.20;99.90;;;;;;5046303;28;20037;-33
2023/09/10 06:10:09;;;;;;;21.95;18.88;;;19.20;99.90;;;;;;5046754;28;20041;-33
2023/09/10 06:12:38;;;;;;;23.73;20.25;;;19.20;99.90;;;;;;5049600;28;20032;-33
2023/09/10 06:15:05;;;;;;;23.20;20.40;;;19.30;99.90;;;;;;5047686;28;20068;-33
2023/09/10 06:17:32;;;;;;;24.42;21.80;;;19.30;99.90;;;;;;5045246;28;20052;-33
2023/09/10 06:19:57;;;;;;;25.33;21.15;;;19.40;99.90;;;;;;5044668;28;20049;-33
2023/09/10 06:22:23;;;;;;;23.40;20.25;;;19.40;99.90;;;;;;5044198;28;20124;-33
2023/09/10 06:24:49;;;;;;;24.58;21.05;;;19.40;99.90;;;;;;5046994;28;20045;-33
2023/09/10 06:27:14;;;;;;;25.35;21.63;;;19.50;99.90;;;;;;5046104;28;20098;-33
2023/09/10 06:29:40;;;;;;;21.88;19.52;;;19.50;99.90;;;;;;5041220;28;20033;-33
2023/09/10 06:32:06;;;;;;;25.27;19.35;;;19.60;99.90;;;;;;5046070;28;20509;-33
2023/09/10 06:34:32;;;;;;;25.10;21.52;;;19.60;99.90;;;;;;5047336;28;20037;-33
2023/09/10 06:36:59;;;;;;;25.27;20.98;;;19.70;99.90;;;;;;5025389;28;20463;-33
2023/09/10 06:39:25;;;;;;;21.90;18.52;;;19.70;99.90;;;;;;5043949;28;20135;-33
2023/09/10 06:41:53;;;;;;;25.70;20.13;;;19.80;99.90;;;;;;5047458;28;20124;-33
2023/09/10 06:44:19;;;;;;;24.10;20.42;;;19.80;99.90;;;;;;5010580;28;20499;-33
2023/09/10 06:46:44;;;;;;;27.02;20.95;;;19.80;99.90;;;;;;5047981;28;20075;-33
2023/09/10 06:49:10;;;;;;;25.50;22.17;;;19.90;99.90;;;;;;5048926;28;20395;-33
2023/09/10 06:51:36;;;;;;;26.17;20.23;;;19.90;99.90;;;;;;5043734;28;20029;-33
2023/09/10 06:54:02;;;;;;;27.50;23.92;;;20.00;99.90;;;;;;5047223;28;20369;-33
2023/09/10 06:56:29;;;;;;;25.73;21.63;;;20.00;99.90;;;;;;5046630;28;20087;-33
2023/09/10 06:58:55;;;;;;;25.65;22.35;;;20.00;99.90;;;;;;5047697;28;20112;-33
2023/09/10 07:01:21;;;;;;;29.45;23.65;;;20.00;99.90;;;;;;5038793;28;20421;-33
2023/09/10 07:03:51;;;;;;;26.20;22.67;;;20.00;99.90;;;;;;5045281;28;20048;-34
2023/09/10 07:06:16;;;;;;;27.48;22.90;;;20.10;99.90;;;;;;5044103;28;20056;-40
2023/09/10 07:08:42;;;;;;;26.92;23.88;;;20.10;99.90;;;;;;5043030;28;20494;-33
2023/09/10 07:11:08;;;;;;;26.50;21.60;;;20.20;99.90;;;;;;5029235;28;20449;-38
2023/09/10 07:13:36;;;;;;;27.15;22.25;;;20.20;99.90;;;;;;5044091;28;20521;-33
2023/09/10 07:16:02;;;;;;;27.50;23.05;;;20.20;99.90;;;;;;5041091;28;20116;-33
2023/09/10 07:18:32;;;;;;;24.30;20.70;;;20.30;99.90;;;;;;5048768;28;20057;-33
2023/09/10 07:21:02;;;;;;;26.33;22.13;;;20.40;99.90;;;;;;5047692;28;20143;-34
2023/09/10 07:23:28;;;;;;;27.77;24.35;;;20.50;99.90;;;;;;5044216;28;20462;-33
2023/09/10 07:25:57;;;;;;;26.30;22.50;;;20.50;99.90;;;;;;5043608;28;20116;-33
2023/09/10 07:28:23;;;;;;;20.55;18.13;;;20.60;99.90;;;;;;5047425;28;20613;-33
2023/09/10 07:30:48;;;;;;;26.48;23.15;;;20.60;99.90;;;;;;5044417;28;20032;-34
2023/09/10 07:33:14;;;;;;;26.58;22.88;;;20.70;99.90;;;;;;5041069;28;20037;-33
2023/09/10 07:35:39;;;;;;;24.13;20.85;;;20.80;99.90;;;;;;5047636;28;20076;-34
2023/09/10 07:38:05;;;;;;;24.48;21.85;;;20.90;99.90;;;;;;5050773;28;20060;-33
2023/09/10 07:40:31;;;;;;;27.75;21.33;;;21.00;99.90;;;;;;5045907;28;20040;-34
2023/09/10 07:42:59;;;;;;;25.23;21.83;;;21.10;99.90;;;;;;5043975;28;20037;-34
2023/09/10 07:45:25;;;;;;;26.02;22.75;;;21.20;99.90;;;;;;5044868;28;20041;-33
2023/09/10 07:47:50;;;;;;;22.95;19.88;;;21.30;99.90;;;;;;5027031;28;20497;-34
2023/09/10 07:50:16;;;;;;;25.85;19.63;;;21.40;99.90;;;;;;5045612;28;20036;-33
2023/09/10 07:52:42;;;;;;;23.52;20.23;;;21.50;99.90;;;;;;5045678;28;20090;-33
2023/09/10 07:55:08;;;;;;;22.38;19.98;;;21.50;99.90;;;;;;5044470;28;20106;-33
2023/09/10 07:57:33;;;;;;;23.40;19.27;;;21.60;99.90;;;;;;5046190;28;21730;-34
2023/09/10 07:59:59;;;;;;;22.58;18.85;;;21.70;99.90;;;;;;5044086;28;22043;-33
2023/09/10 08:02:26;;;;;;;24.20;19.20;;;21.80;99.90;;;;;;5044087;28;20095;-33
2023/09/10 08:04:52;;;;;;;22.88;18.50;;;21.90;99.90;;;;;;5043723;28;20728;-33
2023/09/10 08:07:18;;;;;;;23.15;18.38;;;22.00;99.90;;;;;;5043527;28;20051;-34
2023/09/10 08:09:44;;;;;;;23.05;19.73;;;22.10;99.90;;;;;;5046424;28;20083;-33
2023/09/10 08:12:10;;;;;;;18.77;16.65;;;22.20;99.90;;;;;;5049422;28;20045;-34
2023/09/10 08:14:38;;;;;;;20.85;17.92;;;22.30;99.90;;;;;;5047960;28;20068;-34
2023/09/10 08:17:04;;;;;;;21.38;19.05;;;22.40;99.90;;;;;;5040545;28;20075;-34
2023/09/10 08:19:30;;;;;;;21.25;17.50;;;22.50;99.90;;;;;;5045417;28;20077;-34
2023/09/10 08:21:55;;;;;;;22.83;18.15;;;22.60;99.90;;;;;;5040829;28;20041;-34
2023/09/10 08:24:22;;;;;;;18.77;16.50;;;22.70;99.90;;;;;;5028249;28;20124;-34
2023/09/10 08:26:48;;;;;;;23.00;19.75;;;22.70;99.90;;;;;;5046596;28;20033;-34
2023/09/10 08:29:14;;;;;;;20.75;17.85;;;22.80;99.90;;;;;;5037758;28;20087;-34
2023/09/10 08:31:39;;;;;;;22.00;19.17;;;22.90;99.90;;;;;;5046123;28;20028;-34
2023/09/10 08:34:05;;;;;;;23.80;18.27;;;23.00;99.90;;;;;;5048841;28;20037;-34
2023/09/10 08:36:31;;;;;;;23.00;18.70;;;23.10;99.90;;;;;;5041558;28;20037;-34
2023/09/10 08:38:56;;;;;;;25.38;19.15;;;23.20;99.90;;;;;;5045406;28;20075;-34
2023/09/10 08:41:31;;;;;;;24.15;19.40;;;23.30;99.90;;;;;;5046470;28;20037;-34
2023/09/10 08:44:02;;;;;;;19.58;17.08;;;23.40;99.90;;;;;;5045522;28;20057;-34
2023/09/10 08:46:31;;;;;;;17.10;15.40;;;23.50;99.90;;;;;;5045403;28;20041;-34
2023/09/10 08:48:58;;;;;;;20.08;17.85;;;23.60;99.90;;;;;;5045097;28;20043;-34
2023/09/10 08:51:24;;;;;;;20.67;18.42;;;23.70;99.90;;;;;;5044768;28;20462;-34
2023/09/10 08:53:54;;;;;;;21.33;16.00;;;23.70;99.90;;;;;;5029979;28;20052;-34
2023/09/10 08:56:20;;;;;;;20.35;17.25;;;23.80;99.90;;;;;;5045490;28;20494;-34
2023/09/10 08:58:47;;;;;;;19.77;16.92;;;23.90;99.90;;;;;;5047266;28;20045;-34
2023/09/10 09:01:14;;;;;;;18.23;14.93;;;24.00;99.90;;;;;;5041038;28;22352;-34
2023/09/10 09:03:40;;;;;;;18.08;16.17;;;24.10;99.90;;;;;;5042320;28;20052;-34
2023/09/10 09:06:06;;;;;;;16.50;14.75;;;24.20;99.90;;;;;;5047297;28;20029;-34
2023/09/10 09:08:33;;;;;;;18.10;15.32;;;24.30;99.90;;;;;;5041974;28;20543;-34
2023/09/10 09:11:04;;;;;;;17.05;14.93;;;24.50;99.90;;;;;;5041646;28;20453;-34
2023/09/10 09:13:40;;;;;;;18.40;15.85;;;24.60;99.90;;;;;;5019321;28;20159;-34
2023/09/10 09:16:07;;;;;;;16.55;13.57;;;24.70;99.90;;;;;;5041531;28;20044;-34
2023/09/10 09:18:35;;;;;;;16.60;13.00;;;24.80;99.90;;;;;;5044044;28;20045;-34
2023/09/10 09:21:15;;;;;;;15.02;12.30;;;24.90;99.90;;;;;;5043304;28;20051;-34
2023/09/10 09:23:51;;;;;;;13.52;10.68;;;25.00;99.90;;;;;;5031531;28;20055;-34
2023/09/10 09:26:18;;;;;;;13.85;10.45;;;25.10;99.90;;;;;;5046213;28;20092;-34
2023/09/10 09:28:44;;;;;;;12.50;10.38;;;25.30;99.90;;;;;;5046659;28;20040;-34
2023/09/10 09:31:11;;;;;;;12.77;9.73;;;25.40;99.90;;;;;;5046297;28;20041;-34
2023/09/10 09:33:37;;;;;;;12.05;9.85;;;25.50;99.90;;;;;;5046364;28;20032;-34
2023/09/10 09:36:10;;;;;;;12.82;10.10;;;25.50;99.90;;;;;;5044790;28;20406;-34
2023/09/10 09:38:41;;;;;;;13.07;11.20;;;25.60;99.90;;;;;;5045444;28;20037;-34
2023/09/10 09:41:07;;;;;;;13.93;9.95;;;25.70;99.90;;;;;;5046204;28;20134;-34
2023/09/10 09:43:36;;;;;;;13.25;11.85;;;25.70;99.90;;;;;;5046550;28;20505;-34
2023/09/10 09:46:03;;;;;;;16.52;13.02;;;25.80;99.90;;;;;;5043535;28;20123;-34
2023/09/10 09:48:29;;;;;;;15.52;11.85;;;25.90;99.90;;;;;;5046521;28;20029;-33
2023/09/10 09:50:56;;;;;;;14.43;10.40;;;25.90;99.90;;;;;;5046434;28;20028;-34
2023/09/10 09:53:27;;;;;;;15.45;10.65;;;26.00;99.90;;;;;;5043871;28;20040;-34
2023/09/10 09:56:01;;;;;;;14.30;11.05;;;26.10;99.90;;;;;;5030392;28;20559;-34
2023/09/10 09:58:30;;;;;;;11.55;9.23;;;26.30;99.90;;;;;;5045088;28;20044;-34
2023/09/10 10:01:00;;;;;;;11.57;10.38;;;26.40;99.90;;;;;;5030009;28;20057;-34
2023/09/10 10:03:28;;;;;;;13.55;10.35;;;26.50;99.90;;;;;;5045932;28;20056;-34
2023/09/10 10:05:54;;;;;;;16.15;10.00;;;26.60;99.90;;;;;;5046431;28;20052;-34
2023/09/10 10:08:25;;;;;;;11.85;8.93;;;26.60;99.90;;;;;;5040356;28;20106;-34
2023/09/10 10:10:51;;;;;;;11.13;9.43;;;26.60;99.90;;;;;;5046327;28;20032;-34
2023/09/10 10:13:19;;;;;;;11.80;9.95;;;26.70;99.90;;;;;;5047852;28;20033;-34
2023/09/10 10:15:50;;;;;;;9.77;8.77;;;26.80;99.90;;;;;;5042484;28;20084;-34
2023/09/10 10:18:17;;;;;;;11.85;9.35;;;26.90;99.90;;;;;;5045126;28;20136;-34
2023/09/10 10:20:49;;;;;;;11.35;8.93;;;27.00;99.90;;;;;;5043645;28;20096;-34
2023/09/10 10:23:18;;;;;;;9.15;7.93;;;27.10;99.90;;;;;;5043982;28;20041;-34
2023/09/10 10:25:45;;;;;;;10.75;8.80;;;27.10;99.90;;;;;;5044981;28;20469;-34
2023/09/10 10:28:12;;;;;;;8.80;7.90;;;27.20;99.90;;;;;;5045650;28;21854;-34
2023/09/10 10:30:49;;;;;;;8.88;7.97;;;27.20;99.90;;;;;;5048541;28;20037;-34
2023/09/10 10:33:18;;;;;;;10.00;7.85;;;27.30;99.90;;;;;;5040781;28;20071;-34
2023/09/10 10:36:06;;;;;;;10.98;8.60;;;27.50;99.90;;;;;;5045296;28;20044;-34
2023/09/10 10:38:41;;;;;;;9.25;7.38;;;27.70;99.90;;;;;;5043813;28;20036;-41
2023/09/10 10:41:13;;;;;;;12.23;7.57;;;27.80;99.90;;;;;;5048651;28;20103;-34
2023/09/10 10:44:00;;;;;;;9.20;7.32;;;27.90;99.90;;;;;;5040837;28;20045;-34
2023/09/10 10:46:27;;;;;;;10.50;6.45;;;28.00;99.90;;;;;;5042791;28;20469;-35
2023/09/10 10:48:53;;;;;;;9.93;7.10;;;28.00;99.90;;;;;;5044604;28;20502;-34
2023/09/10 10:51:19;;;;;;;13.07;6.55;;;28.10;99.90;;;;;;5044149;28;20048;-34
2023/09/10 10:53:46;;;;;;;11.23;7.07;;;28.20;99.90;;;;;;5041047;28;20048;-34
2023/09/10 10:56:14;;;;;;;12.05;6.60;;;28.30;99.90;;;;;;5040562;28;20145;-34
2023/09/10 10:58:41;;;;;;;8.48;6.45;;;28.30;99.90;;;;;;5042486;28;20482;-34
2023/09/10 11:01:10;;;;;;;17.85;7.57;;;28.40;99.90;;;;;;5048262;28;20140;-34
2023/09/10 11:03:36;;;;;;;9.32;5.80;;;28.50;99.90;;;;;;5041809;28;20036;-34
2023/09/10 11:06:07;;;;;;;11.50;6.20;;;28.50;99.90;;;;;;5045478;28;20418;-34
2023/09/10 11:08:43;;;;;;;7.65;5.65;;;28.50;99.90;;;;;;5037791;28;20475;-34
2023/09/10 11:11:29;;;;;;;13.57;6.70;;;28.60;99.90;;;;;;5040839;28;20123;-34
2023/09/10 11:14:05;;;;;;;9.73;6.50;;;28.70;99.90;;;;;;5041369;28;20037;-35
2023/09/10 11:16:35;;;;;;;12.57;5.50;;;28.80;99.90;;;;;;5046884;28;20049;-34
2023/09/10 11:19:03;;;;;;;11.35;5.88;;;28.80;99.90;;;;;;5043998;28;20514;-32
2023/09/10 11:21:53;;;;;;;20.25;5.70;;;28.90;99.90;;;;;;5021019;28;20029;-40
2023/09/10 11:24:19;;;;;;;13.70;5.47;;;29.00;99.90;;;;;;5025825;28;20156;-42
2023/09/10 11:26:45;;;;;;;14.48;6.00;;;29.20;99.90;;;;;;5045164;28;20063;-40
2023/09/10 11:29:18;;;;;;;13.50;4.80;;;29.20;99.90;;;;;;5046089;28;20044;-41
2023/09/10 11:31:48;;;;;;;11.90;5.15;;;29.30;99.90;;;;;;5045072;28;20552;-41
2023/09/10 11:34:17;;;;;;;11.70;5.28;;;29.40;99.90;;;;;;5036906;28;20047;-41
2023/09/10 11:36:46;;;;;;;10.25;4.90;;;29.50;99.90;;;;;;5047002;28;20498;-42
2023/09/10 11:39:14;;;;;;;13.88;4.85;;;29.50;99.90;;;;;;5045121;28;20524;-41
2023/09/10 11:41:44;;;;;;;16.77;5.20;;;29.50;99.90;;;;;;5043759;28;20044;-40
2023/09/10 11:44:10;;;;;;;12.60;4.82;;;29.60;99.90;;;;;;5039904;28;20131;-40
2023/09/10 11:46:39;;;;;;;12.95;5.93;;;29.70;99.90;;;;;;5037624;28;20082;-41
2023/09/10 11:49:05;;;;;;;17.45;5.68;;;29.70;99.90;;;;;;5041128;28;20040;-40
2023/09/10 11:51:31;;;;;;;16.63;5.25;;;29.80;99.90;;;;;;5044291;28;20753;-43
2023/09/10 11:53:57;;;;;;;15.48;4.85;;;29.90;99.90;;;;;;5039875;28;20048;-41
2023/09/10 11:56:24;;;;;;;19.55;5.32;;;30.00;99.90;;;;;;5041917;28;20525;-41
2023/09/10 11:58:49;;;;;;;17.83;5.05;;;30.10;99.90;;;;;;5038906;28;20036;-41
2023/09/10 12:01:16;;;;;;;14.10;4.85;;;30.20;99.90;;;;;;5038915;28;20037;-40
2023/09/10 12:03:45;;;;;;;14.55;5.05;;;30.30;99.90;;;;;;5039794;28;20048;-41
2023/09/10 12:06:14;;;;;;;11.15;4.43;;;30.30;99.90;;;;;;5042114;28;20045;-40
2023/09/10 12:08:39;;;;;;;9.98;4.30;;;30.50;99.90;;;;;;5042250;28;20048;-41
2023/09/10 12:11:09;;;;;;;16.45;5.13;;;30.60;99.90;;;;;;5043740;28;20033;-40
2023/09/10 12:13:36;;;;;;;14.77;5.03;;;30.70;99.90;;;;;;5038307;28;20044;-41
2023/09/10 12:16:04;;;;;;;21.92;5.18;;;30.70;99.90;;;;;;5042249;28;20533;-39
2023/09/10 12:18:29;;;;;;;13.15;5.38;;;30.80;99.90;;;;;;5044265;28;20080;-44
2023/09/10 12:20:58;;;;;;;13.63;4.53;;;30.90;99.90;;;;;;5042837;28;20087;-40
2023/09/10 12:23:24;;;;;;;21.25;5.88;;;31.00;99.90;;;;;;5045912;28;20041;-41
2023/09/10 12:25:59;;;;;;;10.30;4.88;;;31.20;99.90;;;;;;5041080;28;20054;-41
2023/09/10 12:28:25;;;;;;;19.55;5.43;;;31.20;99.90;;;;;;5043077;28;20521;-42
2023/09/10 12:30:52;;;;;;;15.00;4.78;;;31.30;99.90;;;;;;5041666;28;20045;-39
2023/09/10 12:33:20;;;;;;;16.25;4.60;;;31.40;99.90;;;;;;5040785;28;20040;-41